Time;durP1;ratioP1;P1;durP2;ratioP2;P2;SDS_P1;SDS_P2;PMS_P1;PMS_P2;Temp;Humidity;BMP_temperature;BMP_pressure;BME280_temperature;BME280_humidity;BME280_pressure;Samples;Min_cycle;Max_cycle;Signal;HPM_P1;HPM_P2
2023/06/02 00:00:40;;;;;;;11.70;9.20;;;13.20;99.90;;;;;;4947101;28;20200;-61
2023/06/02 00:03:10;;;;;;;11.27;8.63;;;13.20;99.90;;;;;;4945648;28;20193;-61
2023/06/02 00:05:39;;;;;;;10.50;9.40;;;13.20;99.90;;;;;;4950117;28;20216;-63
2023/06/02 00:08:08;;;;;;;11.23;9.17;;;13.10;99.90;;;;;;4951358;28;20226;-63
2023/06/02 00:10:37;;;;;;;10.47;8.83;;;13.10;99.90;;;;;;4948628;28;20224;-61
2023/06/02 00:13:07;;;;;;;14.27;9.47;;;13.10;99.90;;;;;;4947446;28;20240;-61
2023/06/02 00:15:37;;;;;;;10.77;8.70;;;13.10;99.90;;;;;;4948997;28;20202;-61
2023/06/02 00:18:05;;;;;;;12.90;9.17;;;13.10;99.90;;;;;;4949086;28;20741;-63
2023/06/02 00:20:34;;;;;;;10.17;8.00;;;13.10;99.90;;;;;;4949983;28;20250;-61
2023/06/02 00:23:03;;;;;;;12.60;8.70;;;13.10;99.90;;;;;;4948239;28;20262;-61
2023/06/02 00:25:31;;;;;;;10.60;8.13;;;13.10;99.90;;;;;;4952732;28;20283;-61
2023/06/02 00:27:59;;;;;;;11.13;8.43;;;13.20;99.90;;;;;;4954600;28;20215;-61
2023/06/02 00:30:28;;;;;;;13.27;8.23;;;13.10;99.90;;;;;;4953068;29;20203;-61
2023/06/02 00:32:58;;;;;;;8.60;7.70;;;13.10;99.90;;;;;;4952807;28;20208;-61
2023/06/02 00:35:26;;;;;;;13.30;7.40;;;12.90;99.90;;;;;;4950537;28;20224;-61
2023/06/02 00:37:55;;;;;;;8.20;7.23;;;12.90;99.90;;;;;;4954194;28;20224;-61
2023/06/02 00:40:24;;;;;;;9.60;7.07;;;12.90;99.90;;;;;;4952238;28;20223;-61
2023/06/02 00:42:52;;;;;;;9.63;6.93;;;12.90;99.90;;;;;;4953974;28;20535;-61
2023/06/02 00:45:21;;;;;;;8.77;6.97;;;13.00;99.90;;;;;;4951951;28;20299;-61
2023/06/02 00:47:50;;;;;;;8.23;7.03;;;12.90;99.90;;;;;;4947237;28;20220;-61
2023/06/02 00:50:20;;;;;;;11.87;7.90;;;12.90;99.90;;;;;;4951337;28;20603;-61
2023/06/02 00:52:52;;;;;;;9.80;8.77;;;12.80;99.90;;;;;;4953384;28;20219;-61
2023/06/02 00:55:21;;;;;;;16.53;8.33;;;12.80;99.90;;;;;;4950302;28;21067;-61
2023/06/02 00:57:51;;;;;;;10.03;9.00;;;12.90;99.90;;;;;;4954867;28;20236;-61
2023/06/02 01:00:20;;;;;;;10.57;8.43;;;12.90;99.90;;;;;;4950180;28;20196;-60
2023/06/02 01:02:49;;;;;;;12.20;8.53;;;12.90;99.90;;;;;;4952246;28;20737;-61
2023/06/02 01:05:20;;;;;;;10.10;7.83;;;12.90;99.90;;;;;;4949095;28;20220;-61
2023/06/02 01:07:51;;;;;;;13.57;8.20;;;12.80;99.90;;;;;;4952909;28;20220;-61
2023/06/02 01:10:20;;;;;;;12.97;7.67;;;12.90;99.90;;;;;;4950315;28;20254;-61
2023/06/02 01:12:50;;;;;;;9.83;7.83;;;12.90;99.90;;;;;;4951640;28;20290;-61
2023/06/02 01:15:19;;;;;;;8.27;6.70;;;12.90;99.90;;;;;;4949625;28;20282;-61
2023/06/02 01:17:50;;;;;;;10.97;7.37;;;12.90;99.90;;;;;;4950046;28;20714;-61
2023/06/02 01:20:22;;;;;;;10.30;8.50;;;12.90;99.90;;;;;;4952161;28;20220;-61
2023/06/02 01:22:58;;;;;;;12.33;9.20;;;12.90;99.90;;;;;;4947499;28;20236;-61
2023/06/02 01:25:28;;;;;;;11.47;8.10;;;12.80;99.90;;;;;;4949810;28;20220;-61
2023/06/02 01:27:58;;;;;;;13.53;7.80;;;12.80;99.90;;;;;;4953326;28;20235;-61
2023/06/02 01:30:27;;;;;;;8.10;6.77;;;12.80;99.90;;;;;;4952501;29;20212;-61
2023/06/02 01:33:03;;;;;;;10.23;6.43;;;12.90;99.90;;;;;;4949310;28;20219;-61
2023/06/02 01:35:34;;;;;;;15.93;6.07;;;12.90;99.90;;;;;;4948546;28;20227;-61
2023/06/02 01:38:03;;;;;;;11.17;5.57;;;12.90;99.90;;;;;;4949974;28;20223;-61
2023/06/02 01:40:32;;;;;;;5.90;5.30;;;12.90;99.90;;;;;;4948916;28;20662;-61
2023/06/02 01:43:02;;;;;;;7.17;4.87;;;12.80;99.90;;;;;;4950626;28;20301;-61
2023/06/02 01:45:33;;;;;;;7.57;5.00;;;12.80;99.90;;;;;;4946948;28;20196;-61
2023/06/02 01:48:02;;;;;;;6.63;5.17;;;12.90;99.90;;;;;;4947737;29;20215;-61
2023/06/02 01:50:32;;;;;;;8.77;4.87;;;12.80;99.90;;;;;;4950521;28;20219;-61
2023/06/02 01:53:00;;;;;;;7.90;4.90;;;12.80;99.90;;;;;;4946652;28;20555;-61
2023/06/02 01:55:29;;;;;;;9.43;5.50;;;12.80;99.90;;;;;;4947760;28;20228;-61
2023/06/02 01:57:58;;;;;;;8.50;5.20;;;12.70;99.90;;;;;;4950171;28;20231;-61
2023/06/02 02:00:27;;;;;;;13.70;4.97;;;12.70;99.90;;;;;;4950219;28;20208;-61
2023/06/02 02:02:56;;;;;;;13.03;5.20;;;12.70;99.90;;;;;;4949322;28;20220;-61
2023/06/02 02:05:24;;;;;;;11.70;5.03;;;12.70;99.90;;;;;;4948711;28;20228;-61
2023/06/02 02:07:53;;;;;;;9.77;5.03;;;12.70;99.90;;;;;;4953852;28;20607;-61
2023/06/02 02:10:21;;;;;;;8.50;5.40;;;12.70;99.90;;;;;;4951031;28;20234;-61
2023/06/02 02:12:49;;;;;;;5.57;4.90;;;12.70;99.90;;;;;;4951579;28;20227;-61
2023/06/02 02:15:19;;;;;;;11.53;5.30;;;12.60;99.90;;;;;;4954243;28;20200;-61
2023/06/02 02:17:47;;;;;;;9.57;5.80;;;12.60;99.90;;;;;;4953614;28;20219;-61
2023/06/02 02:20:17;;;;;;;9.50;5.50;;;12.50;99.90;;;;;;4949872;28;20220;-61
2023/06/02 02:22:46;;;;;;;11.10;5.90;;;12.50;99.90;;;;;;4950815;28;20224;-61
2023/06/02 02:25:15;;;;;;;9.77;7.83;;;12.50;99.90;;;;;;4950798;28;20294;-64
2023/06/02 02:27:44;;;;;;;11.10;6.17;;;12.40;99.90;;;;;;4952338;28;20298;-63
2023/06/02 02:30:12;;;;;;;8.37;5.93;;;12.40;99.90;;;;;;4950964;28;20219;-61
2023/06/02 02:32:44;;;;;;;10.40;5.63;;;12.40;99.90;;;;;;4950615;28;20212;-61
2023/06/02 02:35:13;;;;;;;9.07;5.60;;;12.40;99.90;;;;;;4948604;28;20234;-60
2023/06/02 02:37:41;;;;;;;10.90;6.13;;;12.30;99.90;;;;;;4949751;28;20239;-61
2023/06/02 02:40:15;;;;;;;12.60;6.03;;;12.30;99.90;;;;;;4949109;28;20690;-61
2023/06/02 02:42:45;;;;;;;13.63;6.83;;;12.30;99.90;;;;;;4950371;28;20216;-61
2023/06/02 02:45:13;;;;;;;10.73;5.47;;;12.30;99.90;;;;;;4951259;28;20211;-61
2023/06/02 02:47:43;;;;;;;9.27;5.10;;;12.30;99.90;;;;;;4949215;28;20263;-61
2023/06/02 02:50:11;;;;;;;13.30;5.33;;;12.20;99.90;;;;;;4950146;28;20231;-61
2023/06/02 02:52:39;;;;;;;5.87;4.40;;;12.20;99.90;;;;;;4953377;28;20417;-61
2023/06/02 02:55:08;;;;;;;11.63;5.47;;;12.20;99.90;;;;;;4952981;28;20231;-61
2023/06/02 02:57:37;;;;;;;7.77;4.73;;;12.20;99.90;;;;;;4951202;28;20203;-61
2023/06/02 03:00:08;;;;;;;16.10;5.33;;;12.10;99.90;;;;;;4949506;29;20226;-61
2023/06/02 03:02:36;;;;;;;10.63;5.47;;;12.20;99.90;;;;;;4950876;28;20785;-61
2023/06/02 03:05:08;;;;;;;14.33;5.33;;;12.10;99.90;;;;;;4946105;28;20595;-61
2023/06/02 03:07:39;;;;;;;13.37;4.93;;;12.10;99.90;;;;;;4948549;28;20706;-61
2023/06/02 03:10:08;;;;;;;8.00;4.90;;;12.10;99.90;;;;;;4944990;28;20223;-61
2023/06/02 03:12:36;;;;;;;14.90;5.30;;;12.10;99.90;;;;;;4949886;28;20685;-61
2023/06/02 03:15:05;;;;;;;7.63;4.67;;;12.10;99.90;;;;;;4944159;29;20196;-61
2023/06/02 03:17:34;;;;;;;8.43;5.37;;;12.10;99.90;;;;;;4950888;28;20262;-61
2023/06/02 03:20:05;;;;;;;13.37;5.37;;;12.10;99.90;;;;;;4947995;28;20634;-61
2023/06/02 03:22:34;;;;;;;11.00;4.93;;;12.10;99.90;;;;;;4949981;28;20228;-61
2023/06/02 03:25:03;;;;;;;11.47;5.80;;;12.10;99.90;;;;;;4952709;28;20753;-61
2023/06/02 03:27:32;;;;;;;17.27;6.60;;;12.10;99.90;;;;;;4946062;28;20803;-61
2023/06/02 03:30:00;;;;;;;13.37;6.00;;;12.00;99.90;;;;;;4951087;29;20200;-61
2023/06/02 03:32:29;;;;;;;10.53;5.83;;;12.10;99.90;;;;;;4950396;28;20220;-61
2023/06/02 03:34:57;;;;;;;9.07;5.67;;;12.10;99.90;;;;;;4948052;28;20232;-61
2023/06/02 03:37:25;;;;;;;16.27;6.47;;;12.00;99.90;;;;;;4952972;28;20231;-61
2023/06/02 03:39:55;;;;;;;13.80;6.73;;;12.00;99.90;;;;;;4951981;28;20312;-61
2023/06/02 03:42:23;;;;;;;14.40;6.60;;;12.00;99.90;;;;;;4951721;28;20208;-61
2023/06/02 03:44:52;;;;;;;15.40;6.47;;;12.00;99.90;;;;;;4950273;28;20216;-61
2023/06/02 03:47:20;;;;;;;12.20;6.13;;;12.00;99.90;;;;;;4941827;29;20678;-61
2023/06/02 03:49:49;;;;;;;12.30;6.30;;;12.10;99.90;;;;;;4950692;28;20238;-61
2023/06/02 03:52:18;;;;;;;17.23;6.83;;;12.10;99.90;;;;;;4948212;28;20327;-61
2023/06/02 03:54:48;;;;;;;12.73;6.80;;;12.10;99.90;;;;;;4951777;28;20196;-61
2023/06/02 03:57:17;;;;;;;12.27;6.87;;;12.10;99.90;;;;;;4951221;28;20638;-61
2023/06/02 03:59:46;;;;;;;10.90;6.57;;;12.10;99.90;;;;;;4949849;28;20216;-61
2023/06/02 04:02:14;;;;;;;11.63;7.30;;;12.10;99.90;;;;;;4941505;28;20544;-61
2023/06/02 04:04:42;;;;;;;14.83;7.27;;;12.10;99.90;;;;;;4943748;28;20232;-61
2023/06/02 04:07:11;;;;;;;16.17;6.90;;;12.10;99.90;;;;;;4947101;28;20224;-61
2023/06/02 04:09:39;;;;;;;13.27;7.13;;;12.10;99.90;;;;;;4949557;28;20198;-61
2023/06/02 04:12:08;;;;;;;13.67;7.07;;;12.10;99.90;;;;;;4947511;28;20200;-61
2023/06/02 04:14:38;;;;;;;9.87;6.27;;;12.00;99.90;;;;;;4947366;28;20567;-61
2023/06/02 04:17:07;;;;;;;14.30;6.30;;;12.10;99.90;;;;;;4944348;28;20239;-61
2023/06/02 04:19:35;;;;;;;13.37;5.83;;;12.10;99.90;;;;;;4946640;28;20223;-61
2023/06/02 04:22:05;;;;;;;15.20;5.90;;;12.10;99.90;;;;;;4951172;28;20228;-61
2023/06/02 04:24:34;;;;;;;14.70;5.40;;;12.10;99.90;;;;;;4947353;28;20571;-60
2023/06/02 04:27:02;;;;;;;12.43;5.50;;;12.20;99.90;;;;;;4949336;28;20204;-60
2023/06/02 04:29:30;;;;;;;13.57;5.20;;;12.20;99.90;;;;;;4947497;28;20586;-61
2023/06/02 04:32:01;;;;;;;12.50;5.00;;;12.20;99.90;;;;;;4946688;28;20215;-61
2023/06/02 04:34:31;;;;;;;14.27;4.87;;;12.20;99.90;;;;;;4951698;28;20852;-61
2023/06/02 04:37:00;;;;;;;9.77;4.77;;;12.20;99.90;;;;;;4946077;28;20236;-61
2023/06/02 04:39:29;;;;;;;11.53;4.63;;;12.20;99.90;;;;;;4947399;28;20196;-60
2023/06/02 04:41:57;;;;;;;13.70;4.87;;;12.20;99.90;;;;;;4950470;28;20189;-61
2023/06/02 04:44:26;;;;;;;16.40;4.83;;;12.20;99.90;;;;;;4951536;28;20220;-61
2023/06/02 04:46:54;;;;;;;12.17;4.87;;;12.20;99.90;;;;;;4948980;28;20314;-61
2023/06/02 04:49:24;;;;;;;10.03;4.23;;;12.30;99.90;;;;;;4949222;28;20224;-61
2023/06/02 04:51:55;;;;;;;14.20;4.13;;;12.30;99.90;;;;;;4948157;28;20228;-61
2023/06/02 04:54:23;;;;;;;10.53;4.47;;;12.30;99.90;;;;;;4951432;28;20192;-61
2023/06/02 04:56:54;;;;;;;12.97;4.70;;;12.40;99.90;;;;;;4947195;28;20218;-61
2023/06/02 04:59:23;;;;;;;18.83;5.30;;;12.40;99.90;;;;;;4946004;28;20595;-61
2023/06/02 05:01:51;;;;;;;14.73;5.33;;;12.30;99.90;;;;;;4944244;28;20239;-61
2023/06/02 05:04:21;;;;;;;14.43;5.10;;;12.30;99.90;;;;;;4945831;28;20323;-61
2023/06/02 05:06:51;;;;;;;13.43;5.03;;;12.30;99.90;;;;;;4946171;28;20315;-61
2023/06/02 05:09:20;;;;;;;11.70;5.03;;;12.30;99.90;;;;;;4950592;28;20200;-61
2023/06/02 05:11:48;;;;;;;12.70;5.47;;;12.40;99.90;;;;;;4952876;28;20226;-61
2023/06/02 05:14:19;;;;;;;12.13;5.27;;;12.40;99.90;;;;;;4945428;28;20216;-61
2023/06/02 05:16:48;;;;;;;12.77;5.40;;;12.40;99.90;;;;;;4947072;28;20228;-61
2023/06/02 05:19:16;;;;;;;14.57;5.47;;;12.30;99.90;;;;;;4950923;28;20667;-61
2023/06/02 05:21:44;;;;;;;9.63;4.93;;;12.40;99.90;;;;;;4950167;28;20223;-61
2023/06/02 05:24:14;;;;;;;10.90;5.27;;;12.30;99.90;;;;;;4953834;28;20221;-61
2023/06/02 05:26:43;;;;;;;8.13;5.00;;;12.40;99.90;;;;;;4958472;28;20714;-61
2023/06/02 05:29:11;;;;;;;17.80;6.10;;;12.40;99.90;;;;;;4947562;28;20228;-61
2023/06/02 05:31:39;;;;;;;12.00;5.40;;;12.40;99.90;;;;;;4954439;28;20228;-61
2023/06/02 05:34:08;;;;;;;16.20;6.13;;;12.30;99.90;;;;;;4949080;28;20732;-62
2023/06/02 05:36:36;;;;;;;17.13;5.60;;;12.30;99.90;;;;;;4948524;28;20290;-61
2023/06/02 05:39:05;;;;;;;10.87;5.13;;;12.40;99.90;;;;;;4947485;28;20200;-61
2023/06/02 05:41:35;;;;;;;16.67;5.77;;;12.40;99.90;;;;;;4946714;28;20822;-61
2023/06/02 05:44:03;;;;;;;12.97;5.23;;;12.40;99.90;;;;;;4947038;28;20224;-61
2023/06/02 05:46:32;;;;;;;18.03;5.20;;;12.40;99.90;;;;;;4946990;28;20252;-61
2023/06/02 05:49:00;;;;;;;18.43;5.30;;;12.40;99.90;;;;;;4945230;28;20255;-61
2023/06/02 05:51:28;;;;;;;13.93;5.20;;;12.40;99.90;;;;;;4949054;28;20568;-60
2023/06/02 05:53:57;;;;;;;11.23;5.40;;;12.30;99.90;;;;;;4955432;28;20208;-61
2023/06/02 05:56:25;;;;;;;11.73;5.13;;;12.30;99.90;;;;;;4947678;28;20228;-61
2023/06/02 05:58:55;;;;;;;8.93;5.43;;;12.30;99.90;;;;;;4952536;28;20219;-61
2023/06/02 06:01:23;;;;;;;14.37;5.90;;;12.30;99.90;;;;;;4944184;28;20686;-61
2023/06/02 06:03:51;;;;;;;13.23;5.67;;;12.30;99.90;;;;;;4948196;28;20298;-61
2023/06/02 06:06:20;;;;;;;14.73;5.20;;;12.30;99.90;;;;;;4949476;29;20219;-63
2023/06/02 06:08:48;;;;;;;15.43;5.47;;;12.30;99.90;;;;;;4949908;28;20704;-61
2023/06/02 06:11:17;;;;;;;14.27;6.20;;;12.30;99.90;;;;;;4950891;28;20228;-61
2023/06/02 06:13:45;;;;;;;16.07;5.40;;;12.30;99.90;;;;;;4951568;28;21065;-61
2023/06/02 06:16:15;;;;;;;15.90;5.80;;;12.30;99.90;;;;;;4947455;28;20224;-61
2023/06/02 06:18:44;;;;;;;13.23;5.70;;;12.40;99.90;;;;;;4949151;28;20540;-61
2023/06/02 06:21:13;;;;;;;17.50;5.90;;;12.50;99.90;;;;;;4945787;28;20204;-62
2023/06/02 06:23:41;;;;;;;16.47;6.30;;;12.40;99.90;;;;;;4949197;28;20638;-62
2023/06/02 06:26:09;;;;;;;14.83;6.20;;;12.40;99.90;;;;;;4946969;28;20283;-61
2023/06/02 06:28:38;;;;;;;14.03;6.53;;;12.40;99.90;;;;;;4947325;28;20216;-61
2023/06/02 06:31:06;;;;;;;12.13;6.73;;;12.50;99.90;;;;;;4949972;28;20727;-62
2023/06/02 06:33:36;;;;;;;12.10;5.67;;;12.50;99.90;;;;;;4946947;28;20201;-61
2023/06/02 06:36:04;;;;;;;9.53;5.80;;;12.50;99.90;;;;;;4943921;29;20220;-61
2023/06/02 06:38:33;;;;;;;10.40;5.13;;;12.60;99.90;;;;;;4951860;28;20212;-62
2023/06/02 06:41:01;;;;;;;13.73;5.40;;;12.60;99.90;;;;;;4951631;28;20636;-62
2023/06/02 06:43:30;;;;;;;12.10;5.83;;;12.60;99.90;;;;;;4953664;28;20223;-62
2023/06/02 06:45:59;;;;;;;10.67;5.83;;;12.60;99.90;;;;;;4953363;28;20231;-62
2023/06/02 06:48:28;;;;;;;16.07;6.50;;;12.60;99.90;;;;;;4952574;28;20196;-62
2023/06/02 06:50:58;;;;;;;11.30;5.60;;;12.70;99.90;;;;;;4952859;28;20240;-62
2023/06/02 06:53:27;;;;;;;19.33;7.57;;;12.70;99.90;;;;;;4952832;28;20254;-62
2023/06/02 06:55:56;;;;;;;9.87;6.97;;;12.80;99.90;;;;;;4954163;28;20228;-62
2023/06/02 06:58:25;;;;;;;20.03;7.60;;;12.80;99.90;;;;;;4949236;28;20216;-63
2023/06/02 07:00:53;;;;;;;16.53;7.60;;;12.90;99.90;;;;;;4948467;28;20239;-62
2023/06/02 07:03:21;;;;;;;13.87;7.40;;;13.00;99.90;;;;;;4946757;28;20211;-62
2023/06/02 07:05:50;;;;;;;13.93;7.20;;;13.00;99.90;;;;;;4951556;28;20694;-62
2023/06/02 07:08:20;;;;;;;19.17;6.93;;;13.10;99.90;;;;;;4946752;28;20221;-63
2023/06/02 07:10:48;;;;;;;12.30;6.93;;;13.10;99.90;;;;;;4944708;28;20224;-61
2023/06/02 07:13:17;;;;;;;14.33;7.83;;;13.00;99.90;;;;;;4948729;28;20236;-62
2023/06/02 07:15:45;;;;;;;14.50;7.00;;;12.90;99.90;;;;;;4951488;28;20196;-63
2023/06/02 07:18:13;;;;;;;11.83;6.70;;;12.90;99.90;;;;;;4953460;28;20203;-61
2023/06/02 07:20:42;;;;;;;18.97;6.73;;;13.10;99.90;;;;;;4952151;28;20223;-62
2023/06/02 07:23:10;;;;;;;12.57;6.30;;;13.20;99.90;;;;;;4951549;28;20224;-62
2023/06/02 07:25:40;;;;;;;13.30;6.43;;;13.20;99.90;;;;;;4951502;28;20675;-62
2023/06/02 07:28:08;;;;;;;14.20;5.80;;;13.30;99.90;;;;;;4953745;28;20231;-62
2023/06/02 07:30:36;;;;;;;11.70;6.37;;;13.30;99.90;;;;;;4953375;28;20258;-62
2023/06/02 07:33:05;;;;;;;12.40;6.60;;;13.30;99.90;;;;;;4953556;28;20271;-62
2023/06/02 07:35:33;;;;;;;10.30;7.03;;;13.30;99.90;;;;;;4949034;28;20220;-62
2023/06/02 07:38:01;;;;;;;17.13;7.40;;;13.30;99.90;;;;;;4951488;28;20224;-62
2023/06/02 07:40:30;;;;;;;16.97;7.10;;;13.30;99.90;;;;;;4951167;28;20234;-62
2023/06/02 07:43:00;;;;;;;17.03;7.07;;;13.30;99.90;;;;;;4942951;28;20228;-61
2023/06/02 07:45:28;;;;;;;10.97;7.10;;;13.30;99.90;;;;;;4949957;28;20226;-58
2023/06/02 07:47:57;;;;;;;13.93;6.90;;;13.40;99.90;;;;;;4944504;28;20278;-62
2023/06/02 07:50:25;;;;;;;12.67;7.20;;;13.30;99.90;;;;;;4951600;28;20632;-62
2023/06/02 07:52:54;;;;;;;15.33;8.00;;;13.30;99.90;;;;;;4944142;28;20220;-62
2023/06/02 07:55:24;;;;;;;13.83;7.07;;;13.40;99.90;;;;;;4950910;28;20220;-62
2023/06/02 07:57:53;;;;;;;12.30;7.33;;;13.50;99.90;;;;;;4951509;28;20224;-62
2023/06/02 08:00:24;;;;;;;10.07;7.73;;;13.60;99.90;;;;;;4947201;28;20211;-61
2023/06/02 08:02:52;;;;;;;18.63;7.80;;;13.70;99.90;;;;;;4945457;28;20224;-61
2023/06/02 08:05:21;;;;;;;10.37;7.30;;;13.80;99.90;;;;;;4950675;28;20247;-62
2023/06/02 08:07:49;;;;;;;11.57;7.43;;;13.90;99.90;;;;;;4953272;28;20319;-62
2023/06/02 08:10:17;;;;;;;8.57;6.40;;;13.90;99.90;;;;;;4951593;28;20710;-62
2023/06/02 08:12:46;;;;;;;10.33;6.73;;;13.90;99.90;;;;;;4950770;28;20208;-61
2023/06/02 08:15:14;;;;;;;10.87;6.33;;;13.90;99.90;;;;;;4948879;28;20653;-62
2023/06/02 08:17:45;;;;;;;14.03;5.97;;;13.90;99.90;;;;;;4951399;28;20220;-62
2023/06/02 08:20:16;;;;;;;8.57;6.00;;;13.90;99.90;;;;;;4950916;28;20247;-62
2023/06/02 08:22:45;;;;;;;10.40;5.70;;;14.00;99.90;;;;;;4944112;28;20224;-62
2023/06/02 08:25:14;;;;;;;10.77;5.60;;;13.90;99.90;;;;;;4958495;28;20224;-62
2023/06/02 08:27:44;;;;;;;12.03;5.50;;;13.90;99.90;;;;;;4951997;28;20204;-61
2023/06/02 08:30:14;;;;;;;10.90;5.60;;;14.00;99.90;;;;;;4949296;28;20192;-63
2023/06/02 08:32:48;;;;;;;14.17;6.27;;;14.10;99.90;;;;;;4944746;28;20226;-64
2023/06/02 08:35:17;;;;;;;14.50;6.33;;;14.20;99.90;;;;;;4948203;28;20278;-63
2023/06/02 08:37:45;;;;;;;8.80;6.10;;;14.30;99.90;;;;;;4947541;28;20223;-63
2023/06/02 08:40:17;;;;;;;10.27;6.40;;;14.20;99.90;;;;;;4949975;28;20722;-63
2023/06/02 08:42:47;;;;;;;10.70;5.80;;;14.10;99.90;;;;;;4949438;28;20554;-61
2023/06/02 08:45:20;;;;;;;17.70;6.73;;;14.30;99.90;;;;;;4954605;28;20196;-62
2023/06/02 08:47:54;;;;;;;11.00;6.37;;;14.40;99.90;;;;;;4953932;28;20216;-63
2023/06/02 08:50:26;;;;;;;8.40;5.67;;;14.40;99.90;;;;;;4955461;28;20270;-63
2023/06/02 08:52:56;;;;;;;13.03;5.53;;;14.60;99.90;;;;;;4953787;28;20220;-62
2023/06/02 08:55:25;;;;;;;9.10;6.50;;;14.60;99.90;;;;;;4955640;28;20291;-63
2023/06/02 08:57:53;;;;;;;11.43;6.93;;;14.60;99.90;;;;;;4954892;28;20310;-62
2023/06/02 09:00:21;;;;;;;15.17;6.60;;;14.40;99.90;;;;;;4952064;28;20192;-62
2023/06/02 09:02:52;;;;;;;16.43;5.90;;;14.60;99.90;;;;;;4953744;28;20270;-62
2023/06/02 09:05:22;;;;;;;9.90;6.00;;;14.60;99.90;;;;;;4954473;28;20230;-62
2023/06/02 09:08:07;;;;;;;8.63;5.93;;;14.70;99.90;;;;;;4952344;28;20695;-62
2023/06/02 09:10:39;;;;;;;15.30;5.20;;;14.70;99.90;;;;;;4955363;28;20220;-62
2023/06/02 09:13:09;;;;;;;9.90;5.50;;;14.70;99.90;;;;;;4953023;28;20237;-62
2023/06/02 09:15:52;;;;;;;9.70;5.60;;;14.80;99.90;;;;;;4955147;28;20212;-62
2023/06/02 09:18:23;;;;;;;17.97;5.50;;;14.90;99.90;;;;;;4956206;28;20255;-62
2023/06/02 09:20:52;;;;;;;12.67;5.40;;;14.90;99.90;;;;;;4960634;28;20227;-63
2023/06/02 09:23:21;;;;;;;11.83;5.27;;;15.10;99.90;;;;;;4952312;28;20224;-62
2023/06/02 09:25:51;;;;;;;11.40;5.20;;;15.10;99.90;;;;;;4952024;28;20227;-63
2023/06/02 09:28:19;;;;;;;12.90;6.63;;;15.10;99.90;;;;;;4949835;28;20232;-62
2023/06/02 09:30:47;;;;;;;11.77;6.70;;;15.10;99.90;;;;;;4952758;28;20192;-62
2023/06/02 09:33:16;;;;;;;10.67;7.10;;;15.10;99.90;;;;;;4954056;28;20674;-62
2023/06/02 09:35:48;;;;;;;14.93;6.93;;;15.20;99.90;;;;;;4950882;28;20303;-62
2023/06/02 09:38:17;;;;;;;15.23;5.93;;;15.30;99.90;;;;;;4953633;28;20224;-62
2023/06/02 09:40:46;;;;;;;13.37;6.07;;;15.30;99.90;;;;;;4949830;28;20213;-63
2023/06/02 09:43:16;;;;;;;9.30;5.97;;;15.30;99.90;;;;;;4953141;28;20243;-62
2023/06/02 09:46:00;;;;;;;11.43;6.03;;;15.30;99.90;;;;;;4953004;28;20210;-62
2023/06/02 09:48:30;;;;;;;15.70;6.70;;;15.30;99.90;;;;;;4954589;28;20643;-61
2023/06/02 09:51:00;;;;;;;12.13;6.47;;;15.30;99.90;;;;;;4948030;28;22179;-62
2023/06/02 09:53:29;;;;;;;15.17;6.73;;;15.30;99.90;;;;;;4942762;28;20230;-62
2023/06/02 09:55:57;;;;;;;9.40;6.70;;;15.40;99.90;;;;;;4949493;28;20223;-62
2023/06/02 09:58:25;;;;;;;17.27;7.50;;;15.60;99.90;;;;;;4948262;28;20228;-63
2023/06/02 10:00:55;;;;;;;18.47;7.10;;;15.70;99.90;;;;;;4948442;28;20266;-62
2023/06/02 10:03:24;;;;;;;12.97;6.97;;;15.90;99.90;;;;;;4946049;28;20200;-62
2023/06/02 10:06:07;;;;;;;12.40;6.33;;;16.10;99.90;;;;;;4955922;28;20248;-63
2023/06/02 10:08:47;;;;;;;9.73;6.10;;;16.30;99.90;;;;;;4948213;28;20277;-62
2023/06/02 10:11:22;;;;;;;14.80;5.80;;;16.70;99.90;;;;;;4947728;28;20344;-63
2023/06/02 10:14:02;;;;;;;12.07;6.40;;;16.80;99.90;;;;;;4949753;28;20308;-62
2023/06/02 10:16:55;;;;;;;11.80;6.53;;;16.80;99.90;;;;;;4945955;28;20310;-63
2023/06/02 10:19:55;;;;;;;12.20;6.10;;;17.10;99.90;;;;;;4951761;28;20295;-63
2023/06/02 10:22:45;;;;;;;12.83;6.70;;;17.60;99.90;;;;;;4949299;28;20691;-63
2023/06/02 10:25:21;;;;;;;13.20;6.20;;;17.80;99.90;;;;;;4948324;28;20239;-63
2023/06/02 10:27:51;;;;;;;7.27;5.10;;;17.60;99.90;;;;;;4937901;28;20239;-62
2023/06/02 10:30:21;;;;;;;11.93;6.57;;;17.50;99.90;;;;;;4943022;28;20740;-62
2023/06/02 10:32:50;;;;;;;14.50;7.03;;;17.30;99.90;;;;;;4950713;28;20232;-63
2023/06/02 10:35:19;;;;;;;15.27;6.60;;;17.10;99.90;;;;;;4950512;28;20315;-62
2023/06/02 10:38:25;;;;;;;8.80;5.90;;;17.50;99.90;;;;;;4951791;28;20216;-62
2023/06/02 10:40:56;;;;;;;13.60;5.93;;;18.00;99.90;;;;;;4951660;28;20220;-62
2023/06/02 10:43:24;;;;;;;10.90;5.90;;;18.60;99.90;;;;;;4949993;28;20215;-63
2023/06/02 10:45:55;;;;;;;9.83;5.73;;;19.00;99.90;;;;;;4948209;28;20713;-63
2023/06/02 10:48:40;;;;;;;14.50;6.10;;;19.80;99.90;;;;;;4949593;28;20200;-63
2023/06/02 10:51:09;;;;;;;8.93;4.87;;;20.20;99.90;;;;;;4947475;29;20299;-63
2023/06/02 10:54:16;;;;;;;10.97;5.80;;;19.40;99.90;;;;;;4950047;28;20236;-62
2023/06/02 10:56:46;;;;;;;7.70;4.83;;;19.30;99.90;;;;;;4949426;28;20215;-63
2023/06/02 10:59:36;;;;;;;7.23;4.60;;;19.40;99.90;;;;;;4950295;28;20811;-62
2023/06/02 11:02:04;;;;;;;10.20;4.60;;;19.80;99.90;;;;;;4947748;28;20252;-62
2023/06/02 11:04:35;;;;;;;8.40;5.17;;;19.90;99.90;;;;;;4950586;28;20627;-63
2023/06/02 11:07:22;;;;;;;8.47;4.77;;;19.70;99.90;;;;;;4951330;28;20240;-62
2023/06/02 11:09:55;;;;;;;8.70;4.97;;;20.00;99.90;;;;;;4949106;28;20270;-63
2023/06/02 11:12:57;;;;;;;8.70;4.67;;;20.60;99.90;;;;;;4950635;29;20215;-62
2023/06/02 11:15:26;;;;;;;14.20;4.80;;;20.80;99.90;;;;;;4946220;28;20226;-63
2023/06/02 11:17:54;;;;;;;5.90;4.23;;;21.10;99.90;;;;;;4939771;28;20641;-63
2023/06/02 11:20:33;;;;;;;10.00;4.70;;;21.50;99.90;;;;;;4951249;28;20280;-63
2023/06/02 11:23:05;;;;;;;7.77;4.00;;;21.60;99.90;;;;;;4945939;28;20228;-62
2023/06/02 11:25:36;;;;;;;9.03;4.77;;;21.10;99.90;;;;;;4951578;28;20278;-62
2023/06/02 11:28:04;;;;;;;10.77;4.93;;;20.50;99.90;;;;;;4950412;28;20232;-62
2023/06/02 11:30:32;;;;;;;8.20;5.00;;;20.20;99.90;;;;;;4951814;28;20214;-62
2023/06/02 11:33:01;;;;;;;12.73;5.13;;;20.60;99.90;;;;;;4951776;28;20745;-62
2023/06/02 11:35:29;;;;;;;6.63;4.90;;;20.90;99.90;;;;;;4951214;28;20773;-62
2023/06/02 11:38:04;;;;;;;14.77;5.90;;;21.00;99.90;;;;;;4950123;28;20227;-62
2023/06/02 11:40:38;;;;;;;9.57;5.77;;;21.20;99.90;;;;;;4955450;28;20326;-62
2023/06/02 11:43:06;;;;;;;8.10;5.33;;;21.00;99.90;;;;;;4950850;28;20290;-62
2023/06/02 11:45:36;;;;;;;5.50;4.80;;;20.90;99.90;;;;;;4952713;28;20196;-62
2023/06/02 11:48:07;;;;;;;11.17;5.60;;;20.70;99.90;;;;;;4951009;28;20255;-62
2023/06/02 11:50:36;;;;;;;11.97;5.43;;;20.30;99.90;;;;;;4951223;28;20236;-62
2023/06/02 11:53:13;;;;;;;11.37;5.30;;;20.50;99.90;;;;;;4946584;28;20230;-62
2023/06/02 11:55:42;;;;;;;9.10;5.10;;;20.50;99.90;;;;;;4951513;28;20230;-62
2023/06/02 11:58:19;;;;;;;6.93;5.20;;;20.50;99.90;;;;;;4951374;28;20219;-62
2023/06/02 12:00:48;;;;;;;9.80;5.37;;;20.70;99.90;;;;;;4948261;28;20235;-62
2023/06/02 12:03:17;;;;;;;9.57;5.53;;;20.70;99.90;;;;;;4949933;28;20586;-62
2023/06/02 12:05:48;;;;;;;15.83;5.70;;;20.80;99.90;;;;;;4949326;28;20234;-62
2023/06/02 12:08:20;;;;;;;11.50;5.50;;;20.90;99.90;;;;;;4951793;28;20283;-62
2023/06/02 12:10:51;;;;;;;12.17;5.80;;;21.00;99.90;;;;;;4949849;28;20254;-62
2023/06/02 12:13:26;;;;;;;11.87;5.53;;;20.80;99.90;;;;;;4948674;28;20231;-62
2023/06/02 12:15:55;;;;;;;11.33;5.07;;;20.50;99.90;;;;;;4949894;28;20664;-62
2023/06/02 12:18:30;;;;;;;11.17;5.50;;;20.30;99.90;;;;;;4957947;28;20575;-62
2023/06/02 12:21:00;;;;;;;16.10;5.90;;;20.30;99.90;;;;;;4955124;28;20282;-62
2023/06/02 12:23:44;;;;;;;12.17;5.87;;;20.50;99.90;;;;;;4953413;28;20211;-62
2023/06/02 12:26:13;;;;;;;12.27;6.10;;;20.60;99.90;;;;;;4957194;28;20270;-62
2023/06/02 12:28:42;;;;;;;12.83;5.83;;;20.50;99.90;;;;;;4950432;28;20237;-62
2023/06/02 12:31:10;;;;;;;12.20;5.70;;;20.50;99.90;;;;;;4950964;28;20616;-62
2023/06/02 12:33:40;;;;;;;9.40;5.20;;;20.40;99.90;;;;;;4949391;28;20222;-62
2023/06/02 12:36:10;;;;;;;10.67;5.37;;;20.10;99.90;;;;;;4953774;28;20220;-62
2023/06/02 12:38:38;;;;;;;8.27;5.53;;;20.00;99.90;;;;;;4951316;28;20243;-62
2023/06/02 12:41:10;;;;;;;8.97;5.27;;;20.10;99.90;;;;;;4955850;28;20247;-62
2023/06/02 12:43:41;;;;;;;13.20;5.80;;;20.20;99.90;;;;;;4956143;28;20227;-62
2023/06/02 12:46:11;;;;;;;12.47;6.10;;;20.40;99.90;;;;;;4955801;28;20234;-62
2023/06/02 12:48:40;;;;;;;11.47;5.80;;;20.50;99.90;;;;;;4953782;28;20215;-62
2023/06/02 12:51:08;;;;;;;12.23;6.40;;;20.70;99.90;;;;;;4955480;28;20192;-62
2023/06/02 12:53:37;;;;;;;11.97;6.13;;;20.70;99.90;;;;;;4952532;28;20621;-62